sensor_id;sensor_type;location;lat;lon;timestamp;P1;durP1;ratioP1;P2;durP2;ratioP2
11970;SDS011;6045;42.682;23.294;2023-08-12T00:01:36;4.28;;;2.55;;
11970;SDS011;6045;42.682;23.294;2023-08-12T00:04:03;2.83;;;2.53;;
11970;SDS011;6045;42.682;23.294;2023-08-12T00:06:31;2.92;;;2.40;;
11970;SDS011;6045;42.682;23.294;2023-08-12T00:08:58;2.60;;;2.40;;
11970;SDS011;6045;42.682;23.294;2023-08-12T00:11:24;2.92;;;2.63;;
11970;SDS011;6045;42.682;23.294;2023-08-12T00:13:52;4.80;;;2.75;;
11970;SDS011;6045;42.682;23.294;2023-08-12T00:16:19;2.95;;;2.55;;
11970;SDS011;6045;42.682;23.294;2023-08-12T00:18:46;2.50;;;2.25;;
11970;SDS011;6045;42.682;23.294;2023-08-12T00:21:13;2.47;;;2.25;;
11970;SDS011;6045;42.682;23.294;2023-08-12T00:23:40;3.25;;;2.28;;
11970;SDS011;6045;42.682;23.294;2023-08-12T00:26:08;3.20;;;2.75;;
11970;SDS011;6045;42.682;23.294;2023-08-12T00:28:35;3.00;;;2.22;;
11970;SDS011;6045;42.682;23.294;2023-08-12T00:31:03;2.63;;;2.35;;
11970;SDS011;6045;42.682;23.294;2023-08-12T00:33:30;3.42;;;1.98;;
11970;SDS011;6045;42.682;23.294;2023-08-12T00:35:57;2.80;;;2.30;;
11970;SDS011;6045;42.682;23.294;2023-08-12T00:38:24;3.58;;;2.92;;
11970;SDS011;6045;42.682;23.294;2023-08-12T00:40:50;2.97;;;2.28;;
11970;SDS011;6045;42.682;23.294;2023-08-12T00:43:17;3.08;;;2.33;;
11970;SDS011;6045;42.682;23.294;2023-08-12T00:45:44;2.17;;;1.98;;
11970;SDS011;6045;42.682;23.294;2023-08-12T00:48:13;2.97;;;2.42;;
11970;SDS011;6045;42.682;23.294;2023-08-12T00:50:42;4.25;;;2.38;;
11970;SDS011;6045;42.682;23.294;2023-08-12T00:53:09;2.40;;;2.20;;
11970;SDS011;6045;42.682;23.294;2023-08-12T00:55:36;3.50;;;2.47;;
11970;SDS011;6045;42.682;23.294;2023-08-12T00:58:03;3.30;;;2.08;;
11970;SDS011;6045;42.682;23.294;2023-08-12T01:00:30;3.20;;;2.72;;
11970;SDS011;6045;42.682;23.294;2023-08-12T01:02:58;2.67;;;2.30;;
11970;SDS011;6045;42.682;23.294;2023-08-12T01:05:28;1.88;;;1.77;;
11970;SDS011;6045;42.682;23.294;2023-08-12T01:07:56;3.00;;;2.17;;
11970;SDS011;6045;42.682;23.294;2023-08-12T01:10:23;2.55;;;2.35;;
11970;SDS011;6045;42.682;23.294;2023-08-12T01:13:04;3.33;;;2.08;;
11970;SDS011;6045;42.682;23.294;2023-08-12T01:15:37;2.45;;;2.25;;
11970;SDS011;6045;42.682;23.294;2023-08-12T01:18:05;2.17;;;1.98;;
11970;SDS011;6045;42.682;23.294;2023-08-12T01:20:34;2.47;;;2.20;;
11970;SDS011;6045;42.682;23.294;2023-08-12T01:23:08;2.25;;;2.05;;
11970;SDS011;6045;42.682;23.294;2023-08-12T01:25:37;2.95;;;2.00;;
11970;SDS011;6045;42.682;23.294;2023-08-12T01:28:04;2.42;;;2.20;;
11970;SDS011;6045;42.682;23.294;2023-08-12T01:30:31;2.83;;;2.40;;
11970;SDS011;6045;42.682;23.294;2023-08-12T01:33:01;3.42;;;2.25;;
11970;SDS011;6045;42.682;23.294;2023-08-12T01:35:33;3.17;;;2.28;;
11970;SDS011;6045;42.682;23.294;2023-08-12T01:38:05;2.85;;;2.38;;
11970;SDS011;6045;42.682;23.294;2023-08-12T01:40:36;4.00;;;2.35;;
11970;SDS011;6045;42.682;23.294;2023-08-12T01:43:06;2.85;;;2.53;;
11970;SDS011;6045;42.682;23.294;2023-08-12T01:45:33;3.17;;;2.15;;
11970;SDS011;6045;42.682;23.294;2023-08-12T01:48:00;2.88;;;2.45;;
11970;SDS011;6045;42.682;23.294;2023-08-12T01:50:28;2.80;;;2.05;;
11970;SDS011;6045;42.682;23.294;2023-08-12T01:52:55;3.03;;;2.38;;
11970;SDS011;6045;42.682;23.294;2023-08-12T01:55:23;2.40;;;2.20;;
11970;SDS011;6045;42.682;23.294;2023-08-12T01:57:51;2.38;;;2.17;;
11970;SDS011;6045;42.682;23.294;2023-08-12T02:00:18;2.13;;;1.92;;
11970;SDS011;6045;42.682;23.294;2023-08-12T02:02:45;2.15;;;1.95;;
11970;SDS011;6045;42.682;23.294;2023-08-12T02:05:12;3.10;;;1.95;;
11970;SDS011;6045;42.682;23.294;2023-08-12T02:07:39;2.28;;;2.08;;
11970;SDS011;6045;42.682;23.294;2023-08-12T02:10:06;3.15;;;2.47;;
11970;SDS011;6045;42.682;23.294;2023-08-12T02:12:33;4.30;;;2.17;;
11970;SDS011;6045;42.682;23.294;2023-08-12T02:15:01;3.70;;;2.20;;
11970;SDS011;6045;42.682;23.294;2023-08-12T02:17:28;2.63;;;2.42;;
11970;SDS011;6045;42.682;23.294;2023-08-12T02:19:55;2.72;;;2.00;;
11970;SDS011;6045;42.682;23.294;2023-08-12T02:22:22;4.30;;;2.78;;
11970;SDS011;6045;42.682;23.294;2023-08-12T02:24:49;3.50;;;1.90;;
11970;SDS011;6045;42.682;23.294;2023-08-12T02:27:15;3.67;;;2.13;;
11970;SDS011;6045;42.682;23.294;2023-08-12T02:29:42;2.53;;;2.20;;
11970;SDS011;6045;42.682;23.294;2023-08-12T02:32:10;3.55;;;2.25;;
11970;SDS011;6045;42.682;23.294;2023-08-12T02:34:37;4.35;;;2.47;;
11970;SDS011;6045;42.682;23.294;2023-08-12T02:37:04;2.83;;;2.10;;
11970;SDS011;6045;42.682;23.294;2023-08-12T02:39:31;3.10;;;2.42;;
11970;SDS011;6045;42.682;23.294;2023-08-12T02:41:57;2.60;;;2.38;;
11970;SDS011;6045;42.682;23.294;2023-08-12T02:44:24;2.40;;;2.20;;
11970;SDS011;6045;42.682;23.294;2023-08-12T02:46:51;2.67;;;2.42;;
11970;SDS011;6045;42.682;23.294;2023-08-12T02:49:19;3.35;;;2.42;;
11970;SDS011;6045;42.682;23.294;2023-08-12T02:51:46;2.40;;;2.20;;
11970;SDS011;6045;42.682;23.294;2023-08-12T02:54:12;4.65;;;2.00;;
11970;SDS011;6045;42.682;23.294;2023-08-12T02:56:39;4.50;;;2.28;;
11970;SDS011;6045;42.682;23.294;2023-08-12T02:59:06;2.83;;;2.10;;
11970;SDS011;6045;42.682;23.294;2023-08-12T03:01:33;2.53;;;2.25;;
11970;SDS011;6045;42.682;23.294;2023-08-12T03:03:59;2.58;;;2.25;;
11970;SDS011;6045;42.682;23.294;2023-08-12T03:06:28;2.78;;;2.58;;
11970;SDS011;6045;42.682;23.294;2023-08-12T03:08:54;2.33;;;1.95;;
11970;SDS011;6045;42.682;23.294;2023-08-12T03:11:21;2.97;;;2.05;;
11970;SDS011;6045;42.682;23.294;2023-08-12T03:13:48;3.00;;;2.20;;
11970;SDS011;6045;42.682;23.294;2023-08-12T03:16:15;3.47;;;2.10;;
11970;SDS011;6045;42.682;23.294;2023-08-12T03:18:42;2.25;;;2.05;;
11970;SDS011;6045;42.682;23.294;2023-08-12T03:21:08;3.58;;;2.25;;
11970;SDS011;6045;42.682;23.294;2023-08-12T03:23:37;3.55;;;2.08;;
11970;SDS011;6045;42.682;23.294;2023-08-12T03:26:04;2.53;;;2.10;;
11970;SDS011;6045;42.682;23.294;2023-08-12T03:28:31;2.95;;;2.47;;
11970;SDS011;6045;42.682;23.294;2023-08-12T03:30:58;2.67;;;2.15;;
11970;SDS011;6045;42.682;23.294;2023-08-12T03:33:25;2.45;;;2.10;;
11970;SDS011;6045;42.682;23.294;2023-08-12T03:35:51;2.97;;;2.15;;
11970;SDS011;6045;42.682;23.294;2023-08-12T03:38:18;2.55;;;1.67;;
11970;SDS011;6045;42.682;23.294;2023-08-12T03:40:46;2.25;;;1.92;;
11970;SDS011;6045;42.682;23.294;2023-08-12T03:43:13;2.45;;;2.25;;
11970;SDS011;6045;42.682;23.294;2023-08-12T03:45:40;2.33;;;2.08;;
11970;SDS011;6045;42.682;23.294;2023-08-12T03:48:07;4.97;;;2.78;;
11970;SDS011;6045;42.682;23.294;2023-08-12T03:50:34;2.15;;;1.83;;
11970;SDS011;6045;42.682;23.294;2023-08-12T03:53:01;3.00;;;2.03;;
11970;SDS011;6045;42.682;23.294;2023-08-12T03:55:30;2.22;;;2.03;;
11970;SDS011;6045;42.682;23.294;2023-08-12T03:57:58;2.15;;;1.95;;
11970;SDS011;6045;42.682;23.294;2023-08-12T04:00:25;2.30;;;2.10;;
11970;SDS011;6045;42.682;23.294;2023-08-12T04:02:52;2.50;;;2.25;;
11970;SDS011;6045;42.682;23.294;2023-08-12T04:05:18;2.15;;;1.77;;
11970;SDS011;6045;42.682;23.294;2023-08-12T04:07:45;3.42;;;2.33;;
11970;SDS011;6045;42.682;23.294;2023-08-12T04:10:12;3.20;;;2.30;;
11970;SDS011;6045;42.682;23.294;2023-08-12T04:12:39;3.17;;;2.40;;
11970;SDS011;6045;42.682;23.294;2023-08-12T04:15:08;4.47;;;2.60;;
11970;SDS011;6045;42.682;23.294;2023-08-12T04:17:36;3.50;;;2.40;;
11970;SDS011;6045;42.682;23.294;2023-08-12T04:20:05;2.75;;;2.03;;
11970;SDS011;6045;42.682;23.294;2023-08-12T04:22:33;3.35;;;2.50;;
11970;SDS011;6045;42.682;23.294;2023-08-12T04:24:59;3.13;;;2.45;;
11970;SDS011;6045;42.682;23.294;2023-08-12T04:27:26;2.70;;;2.40;;
11970;SDS011;6045;42.682;23.294;2023-08-12T04:29:53;3.63;;;2.60;;
11970;SDS011;6045;42.682;23.294;2023-08-12T04:32:24;3.10;;;2.00;;
11970;SDS011;6045;42.682;23.294;2023-08-12T04:34:51;3.47;;;2.90;;
11970;SDS011;6045;42.682;23.294;2023-08-12T04:37:18;4.00;;;2.28;;
11970;SDS011;6045;42.682;23.294;2023-08-12T04:39:44;2.20;;;2.00;;
11970;SDS011;6045;42.682;23.294;2023-08-12T04:42:13;2.88;;;2.00;;
11970;SDS011;6045;42.682;23.294;2023-08-12T04:44:40;2.50;;;2.30;;
11970;SDS011;6045;42.682;23.294;2023-08-12T04:47:07;3.75;;;2.50;;
11970;SDS011;6045;42.682;23.294;2023-08-12T04:49:35;2.85;;;1.88;;
11970;SDS011;6045;42.682;23.294;2023-08-12T04:52:02;1.92;;;1.83;;
11970;SDS011;6045;42.682;23.294;2023-08-12T04:54:28;3.08;;;2.22;;
11970;SDS011;6045;42.682;23.294;2023-08-12T04:56:55;2.78;;;2.30;;
11970;SDS011;6045;42.682;23.294;2023-08-12T04:59:22;3.30;;;2.22;;
11970;SDS011;6045;42.682;23.294;2023-08-12T05:01:49;2.50;;;2.28;;
11970;SDS011;6045;42.682;23.294;2023-08-12T05:04:15;3.60;;;2.80;;
11970;SDS011;6045;42.682;23.294;2023-08-12T05:06:44;2.45;;;2.25;;
11970;SDS011;6045;42.682;23.294;2023-08-12T05:09:10;2.90;;;2.53;;
11970;SDS011;6045;42.682;23.294;2023-08-12T05:11:37;7.13;;;2.60;;
11970;SDS011;6045;42.682;23.294;2023-08-12T05:14:04;3.25;;;2.28;;
11970;SDS011;6045;42.682;23.294;2023-08-12T05:16:31;2.78;;;2.47;;
11970;SDS011;6045;42.682;23.294;2023-08-12T05:18:58;2.50;;;2.30;;
11970;SDS011;6045;42.682;23.294;2023-08-12T05:21:24;2.30;;;1.95;;
11970;SDS011;6045;42.682;23.294;2023-08-12T05:23:53;2.58;;;2.20;;
11970;SDS011;6045;42.682;23.294;2023-08-12T05:26:21;5.50;;;2.50;;
11970;SDS011;6045;42.682;23.294;2023-08-12T05:28:48;2.55;;;2.17;;
11970;SDS011;6045;42.682;23.294;2023-08-12T05:31:15;3.53;;;1.95;;
11970;SDS011;6045;42.682;23.294;2023-08-12T05:33:42;4.40;;;2.03;;
11970;SDS011;6045;42.682;23.294;2023-08-12T05:36:09;2.55;;;2.30;;
11970;SDS011;6045;42.682;23.294;2023-08-12T05:38:35;2.42;;;2.10;;
11970;SDS011;6045;42.682;23.294;2023-08-12T05:41:03;2.35;;;2.15;;
11970;SDS011;6045;42.682;23.294;2023-08-12T05:43:32;2.40;;;2.00;;
11970;SDS011;6045;42.682;23.294;2023-08-12T05:45:59;3.22;;;2.20;;
11970;SDS011;6045;42.682;23.294;2023-08-12T05:48:26;2.20;;;2.00;;
11970;SDS011;6045;42.682;23.294;2023-08-12T05:50:52;2.88;;;2.17;;
11970;SDS011;6045;42.682;23.294;2023-08-12T05:53:21;2.90;;;2.55;;
11970;SDS011;6045;42.682;23.294;2023-08-12T05:55:48;2.95;;;2.42;;
11970;SDS011;6045;42.682;23.294;2023-08-12T05:58:16;2.63;;;2.28;;
11970;SDS011;6045;42.682;23.294;2023-08-12T06:00:42;2.20;;;2.00;;
11970;SDS011;6045;42.682;23.294;2023-08-12T06:03:10;4.05;;;2.40;;
11970;SDS011;6045;42.682;23.294;2023-08-12T06:05:37;3.17;;;2.40;;
11970;SDS011;6045;42.682;23.294;2023-08-12T06:08:04;2.45;;;1.88;;
11970;SDS011;6045;42.682;23.294;2023-08-12T06:10:33;2.95;;;2.33;;
11970;SDS011;6045;42.682;23.294;2023-08-12T06:13:00;4.35;;;2.47;;
11970;SDS011;6045;42.682;23.294;2023-08-12T06:15:28;3.05;;;2.65;;
11970;SDS011;6045;42.682;23.294;2023-08-12T06:17:55;2.50;;;2.22;;
11970;SDS011;6045;42.682;23.294;2023-08-12T06:20:22;5.18;;;2.47;;
11970;SDS011;6045;42.682;23.294;2023-08-12T06:22:49;2.25;;;2.05;;
11970;SDS011;6045;42.682;23.294;2023-08-12T06:25:16;2.30;;;2.10;;
11970;SDS011;6045;42.682;23.294;2023-08-12T06:27:43;2.28;;;2.08;;
11970;SDS011;6045;42.682;23.294;2023-08-12T06:30:10;2.80;;;2.03;;
11970;SDS011;6045;42.682;23.294;2023-08-12T06:32:39;2.30;;;1.98;;
11970;SDS011;6045;42.682;23.294;2023-08-12T06:35:07;3.45;;;1.83;;
11970;SDS011;6045;42.682;23.294;2023-08-12T06:37:34;4.32;;;2.13;;
11970;SDS011;6045;42.682;23.294;2023-08-12T06:40:01;4.45;;;2.25;;
11970;SDS011;6045;42.682;23.294;2023-08-12T06:42:28;3.30;;;2.30;;
11970;SDS011;6045;42.682;23.294;2023-08-12T06:44:56;3.03;;;1.92;;
11970;SDS011;6045;42.682;23.294;2023-08-12T06:47:23;2.88;;;2.20;;
11970;SDS011;6045;42.682;23.294;2023-08-12T06:49:52;3.00;;;1.70;;
11970;SDS011;6045;42.682;23.294;2023-08-12T06:52:19;2.33;;;1.92;;
11970;SDS011;6045;42.682;23.294;2023-08-12T06:54:46;2.00;;;1.70;;
11970;SDS011;6045;42.682;23.294;2023-08-12T06:57:12;3.13;;;2.10;;
11970;SDS011;6045;42.682;23.294;2023-08-12T06:59:39;4.10;;;2.13;;
11970;SDS011;6045;42.682;23.294;2023-08-12T07:02:06;2.58;;;2.28;;
11970;SDS011;6045;42.682;23.294;2023-08-12T07:04:33;2.72;;;2.00;;
11970;SDS011;6045;42.682;23.294;2023-08-12T07:07:01;2.47;;;2.00;;
11970;SDS011;6045;42.682;23.294;2023-08-12T07:09:28;2.28;;;1.88;;
11970;SDS011;6045;42.682;23.294;2023-08-12T07:11:54;2.38;;;2.15;;
11970;SDS011;6045;42.682;23.294;2023-08-12T07:14:21;2.40;;;2.20;;
11970;SDS011;6045;42.682;23.294;2023-08-12T07:16:48;3.20;;;2.10;;
11970;SDS011;6045;42.682;23.294;2023-08-12T07:19:15;3.22;;;2.17;;
11970;SDS011;6045;42.682;23.294;2023-08-12T07:21:41;2.50;;;2.22;;
11970;SDS011;6045;42.682;23.294;2023-08-12T07:24:10;2.45;;;1.75;;
11970;SDS011;6045;42.682;23.294;2023-08-12T07:26:37;2.30;;;2.10;;
11970;SDS011;6045;42.682;23.294;2023-08-12T07:29:03;2.33;;;2.13;;
11970;SDS011;6045;42.682;23.294;2023-08-12T07:31:30;2.30;;;2.10;;
11970;SDS011;6045;42.682;23.294;2023-08-12T07:33:57;2.83;;;2.10;;
11970;SDS011;6045;42.682;23.294;2023-08-12T07:36:24;1.98;;;1.80;;
11970;SDS011;6045;42.682;23.294;2023-08-12T07:38:51;4.43;;;2.00;;
11970;SDS011;6045;42.682;23.294;2023-08-12T07:41:19;3.05;;;2.33;;
11970;SDS011;6045;42.682;23.294;2023-08-12T07:43:58;2.20;;;2.03;;
11970;SDS011;6045;42.682;23.294;2023-08-12T07:46:25;7.28;;;2.03;;
11970;SDS011;6045;42.682;23.294;2023-08-12T07:48:51;2.25;;;1.60;;
11970;SDS011;6045;42.682;23.294;2023-08-12T07:51:18;2.60;;;2.38;;
11970;SDS011;6045;42.682;23.294;2023-08-12T07:53:45;2.08;;;1.95;;
11970;SDS011;6045;42.682;23.294;2023-08-12T07:56:12;1.98;;;1.80;;
11970;SDS011;6045;42.682;23.294;2023-08-12T07:58:40;3.90;;;2.20;;
11970;SDS011;6045;42.682;23.294;2023-08-12T08:01:07;2.72;;;2.25;;
11970;SDS011;6045;42.682;23.294;2023-08-12T08:03:34;3.20;;;2.75;;
11970;SDS011;6045;42.682;23.294;2023-08-12T08:06:01;2.10;;;1.90;;
11970;SDS011;6045;42.682;23.294;2023-08-12T08:08:28;3.40;;;1.83;;
11970;SDS011;6045;42.682;23.294;2023-08-12T08:10:55;2.83;;;1.92;;
11970;SDS011;6045;42.682;23.294;2023-08-12T08:13:21;4.07;;;2.22;;
11970;SDS011;6045;42.682;23.294;2023-08-12T08:15:49;2.65;;;2.05;;
11970;SDS011;6045;42.682;23.294;2023-08-12T08:18:16;2.40;;;1.95;;
11970;SDS011;6045;42.682;23.294;2023-08-12T08:20:46;3.30;;;1.98;;
11970;SDS011;6045;42.682;23.294;2023-08-12T08:23:13;2.05;;;1.83;;
11970;SDS011;6045;42.682;23.294;2023-08-12T08:25:40;2.00;;;1.90;;
11970;SDS011;6045;42.682;23.294;2023-08-12T08:28:06;2.20;;;2.00;;
11970;SDS011;6045;42.682;23.294;2023-08-12T08:30:36;2.47;;;2.28;;
11970;SDS011;6045;42.682;23.294;2023-08-12T08:33:05;2.20;;;1.90;;
11970;SDS011;6045;42.682;23.294;2023-08-12T08:35:31;2.47;;;2.15;;
11970;SDS011;6045;42.682;23.294;2023-08-12T08:37:58;1.77;;;1.50;;
11970;SDS011;6045;42.682;23.294;2023-08-12T08:40:25;2.47;;;1.90;;
11970;SDS011;6045;42.682;23.294;2023-08-12T08:42:52;2.20;;;1.95;;
11970;SDS011;6045;42.682;23.294;2023-08-12T08:45:21;2.47;;;1.92;;
11970;SDS011;6045;42.682;23.294;2023-08-12T08:47:49;2.33;;;1.85;;
11970;SDS011;6045;42.682;23.294;2023-08-12T08:50:18;2.05;;;1.80;;
11970;SDS011;6045;42.682;23.294;2023-08-12T08:52:46;2.83;;;2.35;;
11970;SDS011;6045;42.682;23.294;2023-08-12T08:55:14;2.13;;;1.92;;
11970;SDS011;6045;42.682;23.294;2023-08-12T08:57:43;2.25;;;1.83;;
11970;SDS011;6045;42.682;23.294;2023-08-12T09:00:10;2.75;;;2.00;;
11970;SDS011;6045;42.682;23.294;2023-08-12T09:02:41;2.58;;;2.13;;
11970;SDS011;6045;42.682;23.294;2023-08-12T09:05:10;1.83;;;1.70;;
11970;SDS011;6045;42.682;23.294;2023-08-12T09:07:41;2.22;;;2.03;;
11970;SDS011;6045;42.682;23.294;2023-08-12T09:10:09;1.67;;;1.58;;
11970;SDS011;6045;42.682;23.294;2023-08-12T09:12:37;2.92;;;2.00;;
11970;SDS011;6045;42.682;23.294;2023-08-12T09:15:04;2.33;;;2.13;;
11970;SDS011;6045;42.682;23.294;2023-08-12T09:17:32;5.05;;;2.33;;
11970;SDS011;6045;42.682;23.294;2023-08-12T09:19:59;2.20;;;2.00;;
11970;SDS011;6045;42.682;23.294;2023-08-12T09:22:26;1.90;;;1.80;;
11970;SDS011;6045;42.682;23.294;2023-08-12T09:24:57;2.10;;;1.90;;
11970;SDS011;6045;42.682;23.294;2023-08-12T09:27:24;2.28;;;2.08;;
11970;SDS011;6045;42.682;23.294;2023-08-12T09:29:54;2.15;;;1.67;;
11970;SDS011;6045;42.682;23.294;2023-08-12T09:32:22;2.30;;;2.13;;
11970;SDS011;6045;42.682;23.294;2023-08-12T09:34:50;2.30;;;1.80;;
11970;SDS011;6045;42.682;23.294;2023-08-12T09:37:18;2.58;;;2.00;;
11970;SDS011;6045;42.682;23.294;2023-08-12T09:39:46;2.15;;;1.80;;
11970;SDS011;6045;42.682;23.294;2023-08-12T09:42:15;2.28;;;2.08;;
11970;SDS011;6045;42.682;23.294;2023-08-12T09:44:42;2.15;;;1.95;;
11970;SDS011;6045;42.682;23.294;2023-08-12T09:47:09;2.10;;;1.90;;
11970;SDS011;6045;42.682;23.294;2023-08-12T09:49:37;2.13;;;1.98;;
11970;SDS011;6045;42.682;23.294;2023-08-12T09:52:05;2.20;;;2.00;;
11970;SDS011;6045;42.682;23.294;2023-08-12T09:54:33;2.15;;;1.95;;
11970;SDS011;6045;42.682;23.294;2023-08-12T09:57:00;2.03;;;1.75;;
11970;SDS011;6045;42.682;23.294;2023-08-12T09:59:31;1.63;;;1.52;;
11970;SDS011;6045;42.682;23.294;2023-08-12T10:02:00;1.88;;;1.77;;
11970;SDS011;6045;42.682;23.294;2023-08-12T10:04:32;2.00;;;1.80;;
11970;SDS011;6045;42.682;23.294;2023-08-12T10:07:05;2.22;;;1.98;;
11970;SDS011;6045;42.682;23.294;2023-08-12T10:09:32;1.58;;;1.48;;
11970;SDS011;6045;42.682;23.294;2023-08-12T10:12:01;2.10;;;1.80;;
11970;SDS011;6045;42.682;23.294;2023-08-12T10:14:28;4.35;;;1.90;;
11970;SDS011;6045;42.682;23.294;2023-08-12T10:16:57;1.60;;;1.50;;
11970;SDS011;6045;42.682;23.294;2023-08-12T10:19:24;2.38;;;2.17;;
11970;SDS011;6045;42.682;23.294;2023-08-12T10:21:54;2.95;;;2.00;;
11970;SDS011;6045;42.682;23.294;2023-08-12T10:24:23;2.00;;;1.80;;
11970;SDS011;6045;42.682;23.294;2023-08-12T10:26:51;1.65;;;1.55;;
11970;SDS011;6045;42.682;23.294;2023-08-12T10:29:18;2.25;;;1.80;;
11970;SDS011;6045;42.682;23.294;2023-08-12T10:31:47;1.73;;;1.63;;
11970;SDS011;6045;42.682;23.294;2023-08-12T10:34:17;1.98;;;1.80;;
11970;SDS011;6045;42.682;23.294;2023-08-12T10:36:45;2.20;;;2.00;;
11970;SDS011;6045;42.682;23.294;2023-08-12T10:39:13;1.83;;;1.60;;
11970;SDS011;6045;42.682;23.294;2023-08-12T10:41:43;1.95;;;1.85;;
11970;SDS011;6045;42.682;23.294;2023-08-12T10:44:17;1.83;;;1.70;;
11970;SDS011;6045;42.682;23.294;2023-08-12T10:46:51;2.17;;;1.88;;
11970;SDS011;6045;42.682;23.294;2023-08-12T10:49:18;2.38;;;1.92;;
11970;SDS011;6045;42.682;23.294;2023-08-12T10:51:46;2.15;;;1.95;;
11970;SDS011;6045;42.682;23.294;2023-08-12T10:54:15;3.35;;;1.65;;
11970;SDS011;6045;42.682;23.294;2023-08-12T10:59:52;1.83;;;1.70;;
11970;SDS011;6045;42.682;23.294;2023-08-12T11:02:26;1.90;;;1.80;;
11970;SDS011;6045;42.682;23.294;2023-08-12T11:04:54;1.50;;;1.40;;
11970;SDS011;6045;42.682;23.294;2023-08-12T11:07:23;1.92;;;1.52;;
11970;SDS011;6045;42.682;23.294;2023-08-12T11:09:58;2.28;;;1.90;;
11970;SDS011;6045;42.682;23.294;2023-08-12T11:12:30;2.60;;;2.00;;
11970;SDS011;6045;42.682;23.294;2023-08-12T11:14:58;2.53;;;2.10;;
11970;SDS011;6045;42.682;23.294;2023-08-12T11:17:31;1.75;;;1.65;;
11970;SDS011;6045;42.682;23.294;2023-08-12T11:19:59;1.75;;;1.65;;
11970;SDS011;6045;42.682;23.294;2023-08-12T11:22:26;1.77;;;1.60;;
11970;SDS011;6045;42.682;23.294;2023-08-12T11:24:54;2.42;;;2.08;;
11970;SDS011;6045;42.682;23.294;2023-08-12T11:27:21;1.90;;;1.60;;
11970;SDS011;6045;42.682;23.294;2023-08-12T11:29:49;2.78;;;1.73;;
11970;SDS011;6045;42.682;23.294;2023-08-12T11:32:15;2.35;;;1.90;;
11970;SDS011;6045;42.682;23.294;2023-08-12T11:34:44;2.00;;;1.80;;
11970;SDS011;6045;42.682;23.294;2023-08-12T11:37:11;1.48;;;1.38;;
11970;SDS011;6045;42.682;23.294;2023-08-12T11:39:38;1.67;;;1.50;;
11970;SDS011;6045;42.682;23.294;2023-08-12T11:42:05;1.38;;;1.27;;
11970;SDS011;6045;42.682;23.294;2023-08-12T11:44:31;1.73;;;1.63;;
11970;SDS011;6045;42.682;23.294;2023-08-12T11:46:58;2.38;;;1.70;;
11970;SDS011;6045;42.682;23.294;2023-08-12T11:49:25;2.10;;;1.60;;
11970;SDS011;6045;42.682;23.294;2023-08-12T11:51:53;2.63;;;1.48;;
11970;SDS011;6045;42.682;23.294;2023-08-12T11:54:20;2.03;;;1.50;;
11970;SDS011;6045;42.682;23.294;2023-08-12T11:56:47;1.33;;;1.23;;
11970;SDS011;6045;42.682;23.294;2023-08-12T11:59:14;1.40;;;1.30;;
11970;SDS011;6045;42.682;23.294;2023-08-12T12:01:41;1.50;;;1.40;;
11970;SDS011;6045;42.682;23.294;2023-08-12T12:04:13;1.60;;;1.50;;
11970;SDS011;6045;42.682;23.294;2023-08-12T12:06:46;1.45;;;1.27;;
11970;SDS011;6045;42.682;23.294;2023-08-12T12:09:15;1.35;;;1.10;;
11970;SDS011;6045;42.682;23.294;2023-08-12T12:11:43;1.52;;;1.40;;
11970;SDS011;6045;42.682;23.294;2023-08-12T12:14:10;1.50;;;1.25;;
11970;SDS011;6045;42.682;23.294;2023-08-12T12:16:38;3.17;;;1.50;;
11970;SDS011;6045;42.682;23.294;2023-08-12T12:19:08;1.77;;;1.67;;
11970;SDS011;6045;42.682;23.294;2023-08-12T12:21:39;1.90;;;1.30;;
11970;SDS011;6045;42.682;23.294;2023-08-12T12:24:07;1.90;;;1.58;;
11970;SDS011;6045;42.682;23.294;2023-08-12T12:26:35;2.05;;;1.80;;
11970;SDS011;6045;42.682;23.294;2023-08-12T12:29:03;2.33;;;1.98;;
11970;SDS011;6045;42.682;23.294;2023-08-12T12:31:31;2.17;;;1.98;;
11970;SDS011;6045;42.682;23.294;2023-08-12T12:33:59;1.60;;;1.50;;
11970;SDS011;6045;42.682;23.294;2023-08-12T12:36:25;2.58;;;1.77;;
11970;SDS011;6045;42.682;23.294;2023-08-12T12:38:52;1.70;;;1.60;;
11970;SDS011;6045;42.682;23.294;2023-08-12T12:41:19;1.70;;;1.60;;
11970;SDS011;6045;42.682;23.294;2023-08-12T12:43:47;2.00;;;1.80;;
11970;SDS011;6045;42.682;23.294;2023-08-12T12:46:14;1.80;;;1.70;;
11970;SDS011;6045;42.682;23.294;2023-08-12T12:48:41;1.98;;;1.75;;
11970;SDS011;6045;42.682;23.294;2023-08-12T12:51:08;1.67;;;1.58;;
11970;SDS011;6045;42.682;23.294;2023-08-12T12:53:35;1.50;;;1.40;;
11970;SDS011;6045;42.682;23.294;2023-08-12T12:56:02;1.83;;;1.65;;
11970;SDS011;6045;42.682;23.294;2023-08-12T12:58:30;2.00;;;1.77;;
11970;SDS011;6045;42.682;23.294;2023-08-12T13:00:59;1.92;;;1.73;;
11970;SDS011;6045;42.682;23.294;2023-08-12T13:03:26;3.13;;;1.80;;
11970;SDS011;6045;42.682;23.294;2023-08-12T13:05:54;1.60;;;1.50;;
11970;SDS011;6045;42.682;23.294;2023-08-12T13:08:21;1.83;;;1.70;;
11970;SDS011;6045;42.682;23.294;2023-08-12T13:10:47;2.28;;;1.63;;
11970;SDS011;6045;42.682;23.294;2023-08-12T13:13:14;2.17;;;1.77;;
11970;SDS011;6045;42.682;23.294;2023-08-12T13:15:45;1.60;;;1.50;;
11970;SDS011;6045;42.682;23.294;2023-08-12T13:18:14;1.67;;;1.58;;
11970;SDS011;6045;42.682;23.294;2023-08-12T13:20:40;2.42;;;1.63;;
11970;SDS011;6045;42.682;23.294;2023-08-12T13:23:07;2.17;;;1.73;;
11970;SDS011;6045;42.682;23.294;2023-08-12T13:25:34;3.30;;;1.73;;
11970;SDS011;6045;42.682;23.294;2023-08-12T13:28:01;1.65;;;1.55;;
11970;SDS011;6045;42.682;23.294;2023-08-12T13:30:29;2.20;;;1.67;;
11970;SDS011;6045;42.682;23.294;2023-08-12T13:32:56;2.33;;;1.88;;
11970;SDS011;6045;42.682;23.294;2023-08-12T13:35:24;1.95;;;1.70;;
11970;SDS011;6045;42.682;23.294;2023-08-12T13:37:51;1.63;;;1.52;;
11970;SDS011;6045;42.682;23.294;2023-08-12T13:40:18;2.15;;;1.70;;
11970;SDS011;6045;42.682;23.294;2023-08-12T13:42:44;1.48;;;1.38;;
11970;SDS011;6045;42.682;23.294;2023-08-12T13:45:12;2.22;;;1.55;;
11970;SDS011;6045;42.682;23.294;2023-08-12T13:47:39;2.50;;;2.08;;
11970;SDS011;6045;42.682;23.294;2023-08-12T13:50:06;1.63;;;1.52;;
11970;SDS011;6045;42.682;23.294;2023-08-12T13:52:37;1.58;;;1.45;;
11970;SDS011;6045;42.682;23.294;2023-08-12T13:55:05;1.83;;;1.60;;
11970;SDS011;6045;42.682;23.294;2023-08-12T13:57:32;1.60;;;1.50;;
11970;SDS011;6045;42.682;23.294;2023-08-12T13:59:59;1.90;;;1.70;;
11970;SDS011;6045;42.682;23.294;2023-08-12T14:02:26;2.10;;;1.60;;
11970;SDS011;6045;42.682;23.294;2023-08-12T14:04:53;3.75;;;2.40;;
11970;SDS011;6045;42.682;23.294;2023-08-12T14:07:20;1.58;;;1.48;;
11970;SDS011;6045;42.682;23.294;2023-08-12T14:09:48;3.35;;;1.50;;
11970;SDS011;6045;42.682;23.294;2023-08-12T14:12:15;2.80;;;1.80;;
11970;SDS011;6045;42.682;23.294;2023-08-12T14:14:42;1.92;;;1.60;;
11970;SDS011;6045;42.682;23.294;2023-08-12T14:17:08;1.98;;;1.75;;
11970;SDS011;6045;42.682;23.294;2023-08-12T14:19:38;2.13;;;1.70;;
11970;SDS011;6045;42.682;23.294;2023-08-12T14:22:06;1.98;;;1.52;;
11970;SDS011;6045;42.682;23.294;2023-08-12T14:24:33;2.13;;;1.65;;
11970;SDS011;6045;42.682;23.294;2023-08-12T14:27:01;1.38;;;1.20;;
11970;SDS011;6045;42.682;23.294;2023-08-12T14:29:29;1.27;;;1.17;;
11970;SDS011;6045;42.682;23.294;2023-08-12T14:31:56;1.73;;;1.50;;
11970;SDS011;6045;42.682;23.294;2023-08-12T14:34:23;1.45;;;1.25;;
11970;SDS011;6045;42.682;23.294;2023-08-12T14:36:50;1.55;;;1.45;;
11970;SDS011;6045;42.682;23.294;2023-08-12T14:39:17;1.20;;;1.10;;
11970;SDS011;6045;42.682;23.294;2023-08-12T14:41:44;2.35;;;1.60;;
11970;SDS011;6045;42.682;23.294;2023-08-12T14:44:12;1.20;;;1.10;;
11970;SDS011;6045;42.682;23.294;2023-08-12T14:46:38;3.15;;;1.63;;
11970;SDS011;6045;42.682;23.294;2023-08-12T14:49:05;1.52;;;1.30;;
11970;SDS011;6045;42.682;23.294;2023-08-12T14:51:32;1.63;;;1.52;;
11970;SDS011;6045;42.682;23.294;2023-08-12T14:53:59;1.60;;;1.50;;